Time;durP1;ratioP1;P1;durP2;ratioP2;P2;SDS_P1;SDS_P2;PMS_P1;PMS_P2;Temp;Humidity;BMP_temperature;BMP_pressure;BME280_temperature;BME280_humidity;BME280_pressure;Samples;Min_cycle;Max_cycle;Signal;HPM_P1;HPM_P2
2022/02/05 00:00:54;;;;;;;28.17;10.65;;;;;;;;;;2109968;28;20186;-52
2022/02/05 00:01:56;;;;;;;23.80;10.85;;;;;;;;;;2106646;28;20515;-51
2022/02/05 00:03:08;;;;;;;24.50;10.55;;;;;;;;;;2106948;28;20196;-50
2022/02/05 00:04:10;;;;;;;22.35;10.10;;;;;;;;;;2112225;28;20094;-51
2022/02/05 00:05:13;;;;;;;19.20;10.10;;;;;;;;;;2115250;28;20530;-48
2022/02/05 00:06:19;;;;;;;28.13;9.95;;;;;;;;;;2109112;28;20090;-42
2022/02/05 00:07:22;;;;;;;26.33;10.10;;;;;;;;;;2107624;28;20576;-43
2022/02/05 00:09:59;;;;;;;24.02;11.02;;;;;;;;;;2097600;28;20549;-44
2022/02/05 00:12:34;;;;;;;19.38;9.50;;;;;;;;;;2112409;28;20072;-44
2022/02/05 00:14:11;;;;;;;21.17;9.40;;;;;;;;;;2106952;28;20048;-45
2022/02/05 00:15:33;;;;;;;17.98;8.52;;;;;;;;;;2111089;28;20128;-44
2022/02/05 00:40:51;;;;;;;17.85;8.68;;;;;;;;;;2087588;28;20041;-46
2022/02/05 00:42:04;;;;;;;26.10;9.48;;;;;;;;;;2088892;28;20550;-45
2022/02/05 00:43:06;;;;;;;19.77;9.15;;;;;;;;;;2088010;28;20107;-46
2022/02/05 00:44:06;;;;;;;19.05;9.40;;;;;;;;;;2088645;28;20132;-44
2022/02/05 00:45:09;;;;;;;19.60;8.70;;;;;;;;;;2088924;28;20093;-43
2022/02/05 00:46:10;;;;;;;22.85;9.43;;;;;;;;;;2092684;28;20128;-43
2022/02/05 00:47:12;;;;;;;20.60;9.40;;;;;;;;;;2115154;28;20047;-43
2022/02/05 00:48:16;;;;;;;19.65;9.80;;;;;;;;;;2114475;28;20280;-43
2022/02/05 00:49:18;;;;;;;22.17;10.50;;;;;;;;;;2110991;28;20040;-44
2022/02/05 00:50:23;;;;;;;23.15;10.55;;;;;;;;;;2115141;28;20082;-44
2022/02/05 00:51:29;;;;;;;18.13;9.35;;;;;;;;;;2112847;28;20274;-43
2022/02/05 00:52:30;;;;;;;21.23;10.15;;;;;;;;;;2113653;28;20626;-43
2022/02/05 00:53:34;;;;;;;19.80;9.90;;;;;;;;;;2114942;28;20117;-43
2022/02/05 00:54:35;;;;;;;24.70;10.30;;;;;;;;;;2110496;28;20185;-43
2022/02/05 00:55:40;;;;;;;21.58;10.00;;;;;;;;;;2106440;28;20310;-43
2022/02/05 00:58:03;;;;;;;21.48;9.35;;;;;;;;;;2078912;28;20665;-44
2022/02/05 00:59:04;;;;;;;20.73;9.60;;;;;;;;;;2106522;28;20087;-44
2022/02/05 01:00:06;;;;;;;20.03;8.80;;;;;;;;;;2109012;28;20070;-43
2022/02/05 01:01:08;;;;;;;22.65;10.25;;;;;;;;;;2110778;28;20039;-43
2022/02/05 01:02:09;;;;;;;22.00;10.50;;;;;;;;;;2106223;28;20513;-43
2022/02/05 01:03:10;;;;;;;20.13;10.55;;;;;;;;;;2109364;28;20260;-42
2022/02/05 01:04:11;;;;;;;21.10;10.15;;;;;;;;;;2106454;28;20614;-42
2022/02/05 01:05:13;;;;;;;17.65;9.63;;;;;;;;;;2106395;28;20078;-44
2022/02/05 01:06:14;;;;;;;22.48;8.77;;;;;;;;;;2111742;28;20139;-43
2022/02/05 01:07:15;;;;;;;21.02;9.82;;;;;;;;;;2115032;28;20083;-43
2022/02/05 01:08:17;;;;;;;24.85;10.18;;;;;;;;;;2115312;28;20129;-43
2022/02/05 01:09:21;;;;;;;24.50;10.73;;;;;;;;;;2111602;28;20082;-43
2022/02/05 01:10:23;;;;;;;20.35;8.93;;;;;;;;;;2114969;28;20093;-43
2022/02/05 01:11:24;;;;;;;17.02;8.20;;;;;;;;;;2114465;28;20154;-42
2022/02/05 01:12:29;;;;;;;21.73;9.03;;;;;;;;;;2107506;28;20044;-43
2022/02/05 01:13:32;;;;;;;20.00;8.90;;;;;;;;;;2106398;28;20076;-43
2022/02/05 01:14:43;;;;;;;19.65;9.80;;;;;;;;;;2111584;28;20043;-43
2022/02/05 01:15:52;;;;;;;18.48;9.23;;;;;;;;;;2114897;28;20047;-42
2022/02/05 01:16:57;;;;;;;19.00;9.40;;;;;;;;;;2113829;28;20159;-43
2022/02/05 01:18:01;;;;;;;19.02;9.40;;;;;;;;;;2107079;28;20120;-43
2022/02/05 01:19:02;;;;;;;17.95;9.25;;;;;;;;;;2106323;28;20157;-43
2022/02/05 01:21:32;;;;;;;22.13;10.27;;;;;;;;;;2106397;28;20481;-43
2022/02/05 01:22:37;;;;;;;28.67;9.98;;;;;;;;;;2108229;28;20044;-43
2022/02/05 01:23:43;;;;;;;21.98;10.48;;;;;;;;;;2113077;28;20126;-43
2022/02/05 01:24:47;;;;;;;24.10;11.38;;;;;;;;;;2114797;28;20043;-42
2022/02/05 01:25:57;;;;;;;24.42;11.10;;;;;;;;;;2112711;28;20121;-42
2022/02/05 01:27:03;;;;;;;23.30;10.90;;;;;;;;;;2114643;28;20560;-43
2022/02/05 01:28:10;;;;;;;21.25;10.85;;;;;;;;;;2115679;28;20067;-43
2022/02/05 01:29:24;;;;;;;21.77;11.57;;;;;;;;;;2111907;28;20259;-43
2022/02/05 01:30:29;;;;;;;28.33;13.90;;;;;;;;;;2114847;28;20088;-43
2022/02/05 01:31:37;;;;;;;31.00;13.65;;;;;;;;;;2111489;28;20147;-43
2022/02/05 01:32:42;;;;;;;31.05;13.63;;;;;;;;;;2114664;28;20071;-42
2022/02/05 01:34:00;;;;;;;28.65;13.70;;;;;;;;;;2112300;28;20176;-42
2022/02/05 01:35:07;;;;;;;26.85;12.65;;;;;;;;;;2112768;28;20074;-43
2022/02/05 01:36:29;;;;;;;27.58;12.27;;;;;;;;;;2114524;28;20075;-43
2022/02/05 01:50:59;;;;;;;23.13;12.05;;;;;;;;;;2092243;28;20135;-49
2022/02/05 01:52:09;;;;;;;27.52;12.35;;;;;;;;;;2107101;28;20120;-49
2022/02/05 01:53:27;;;;;;;28.10;12.18;;;;;;;;;;2106189;28;20079;-49
2022/02/05 01:54:41;;;;;;;34.30;12.07;;;;;;;;;;2109597;28;20500;-49
2022/02/05 01:55:56;;;;;;;27.17;12.75;;;;;;;;;;2114623;28;20147;-50
2022/02/05 01:57:02;;;;;;;28.92;11.90;;;;;;;;;;2110211;28;20417;-43
2022/02/05 01:58:16;;;;;;;27.02;12.45;;;;;;;;;;2111542;28;20054;-43
2022/02/05 01:59:27;;;;;;;28.77;12.52;;;;;;;;;;2105458;28;20127;-43
2022/02/05 02:05:53;;;;;;;24.65;11.52;;;;;;;;;;2111629;28;20082;-42
2022/02/05 02:07:08;;;;;;;26.60;12.52;;;;;;;;;;2114503;28;20052;-43
2022/02/05 02:09:55;;;;;;;28.83;12.68;;;;;;;;;;2106288;28;20123;-43
2022/02/05 02:12:16;;;;;;;31.15;14.30;;;;;;;;;;2103972;28;20107;-43
2022/02/05 02:14:44;;;;;;;27.88;12.48;;;;;;;;;;2106812;28;20048;-43
2022/02/05 02:15:53;;;;;;;26.98;12.52;;;;;;;;;;2106041;28;20095;-43
2022/02/05 02:18:29;;;;;;;26.77;12.70;;;;;;;;;;2102170;28;20063;-43
2022/02/05 02:19:38;;;;;;;29.10;13.93;;;;;;;;;;2108866;28;20048;-43
2022/02/05 02:20:53;;;;;;;33.83;13.77;;;;;;;;;;2105931;28;20126;-43
2022/02/05 02:22:00;;;;;;;32.85;14.38;;;;;;;;;;2107047;28;20119;-42
2022/02/05 02:23:14;;;;;;;31.58;13.32;;;;;;;;;;2106782;28;20036;-42
2022/02/05 02:24:20;;;;;;;30.10;13.10;;;;;;;;;;2105929;28;20086;-43
2022/02/05 02:25:35;;;;;;;29.95;13.90;;;;;;;;;;2106765;28;20411;-43
2022/02/05 02:26:49;;;;;;;27.98;13.50;;;;;;;;;;2114394;28;20508;-42
2022/02/05 02:28:00;;;;;;;35.00;15.43;;;;;;;;;;2111349;28;20128;-44
2022/02/05 02:29:06;;;;;;;34.10;14.50;;;;;;;;;;2105970;28;20072;-43
2022/02/05 02:30:14;;;;;;;34.55;14.48;;;;;;;;;;2105915;28;20086;-43
2022/02/05 02:31:19;;;;;;;30.20;13.77;;;;;;;;;;2112808;28;20119;-43
2022/02/05 02:32:21;;;;;;;33.90;13.70;;;;;;;;;;2114270;28;20040;-43
2022/02/05 02:33:29;;;;;;;32.85;14.23;;;;;;;;;;2113671;28;20548;-42
2022/02/05 02:34:35;;;;;;;33.10;14.85;;;;;;;;;;2106723;28;20466;-42
2022/02/05 02:35:42;;;;;;;30.35;15.10;;;;;;;;;;2105754;28;20044;-42
2022/02/05 02:36:48;;;;;;;28.33;14.40;;;;;;;;;;2108224;28;20588;-43
2022/02/05 02:37:54;;;;;;;29.98;14.43;;;;;;;;;;2114138;28;20509;-44
2022/02/05 02:39:02;;;;;;;32.13;14.93;;;;;;;;;;2112013;28;20100;-43
2022/02/05 02:40:08;;;;;;;31.83;15.45;;;;;;;;;;2111943;28;20138;-43
2022/02/05 02:41:15;;;;;;;34.72;16.10;;;;;;;;;;2114189;28;20686;-43
2022/02/05 02:42:18;;;;;;;35.25;14.23;;;;;;;;;;2111016;28;20075;-43
2022/02/05 02:43:27;;;;;;;36.25;15.10;;;;;;;;;;2105946;28;20048;-42
2022/02/05 02:44:28;;;;;;;29.63;14.75;;;;;;;;;;2106167;28;20513;-42
2022/02/05 02:45:29;;;;;;;30.85;14.95;;;;;;;;;;2110903;28;20051;-43
2022/02/05 02:46:30;;;;;;;34.55;15.15;;;;;;;;;;2114026;28;20408;-43
2022/02/05 02:47:31;;;;;;;36.20;14.90;;;;;;;;;;2111203;28;20079;-42
2022/02/05 02:48:33;;;;;;;37.03;16.13;;;;;;;;;;2111451;28;20036;-43
2022/02/05 02:49:46;;;;;;;28.98;14.43;;;;;;;;;;2114267;28;20078;-43
2022/02/05 02:56:31;;;;;;;31.00;13.52;;;;;;;;;;2109972;28;20123;-43
2022/02/05 02:57:33;;;;;;;32.92;13.77;;;;;;;;;;2105786;28;20127;-43
2022/02/05 02:58:39;;;;;;;38.33;15.60;;;;;;;;;;2105702;28;20527;-43
2022/02/05 02:59:50;;;;;;;38.28;14.77;;;;;;;;;;2110622;28;20177;-45
2022/02/05 03:00:55;;;;;;;35.72;16.58;;;;;;;;;;2113589;28;20075;-43
2022/02/05 03:02:00;;;;;;;36.63;16.90;;;;;;;;;;2108701;28;20112;-43
2022/02/05 03:03:02;;;;;;;41.72;18.17;;;;;;;;;;2105777;28;20168;-43
2022/02/05 03:04:03;;;;;;;39.83;18.60;;;;;;;;;;2105840;28;20482;-43
2022/02/05 03:05:04;;;;;;;35.45;16.80;;;;;;;;;;2111321;28;20054;-43
2022/02/05 03:06:05;;;;;;;34.80;15.95;;;;;;;;;;2114082;28;20077;-44
2022/02/05 03:07:06;;;;;;;37.43;16.33;;;;;;;;;;2111003;28;20100;-44
2022/02/05 03:08:08;;;;;;;39.42;17.17;;;;;;;;;;2106735;28;20040;-43
2022/02/05 03:09:10;;;;;;;35.83;15.93;;;;;;;;;;2105756;28;20044;-43
2022/02/05 03:10:12;;;;;;;34.45;15.52;;;;;;;;;;2108651;28;20144;-43
2022/02/05 03:11:13;;;;;;;29.88;14.98;;;;;;;;;;2114081;28;20143;-43
2022/02/05 03:12:15;;;;;;;36.25;15.70;;;;;;;;;;2113724;28;20456;-44
2022/02/05 03:13:15;;;;;;;31.35;13.40;;;;;;;;;;2109284;28;20158;-43
2022/02/05 03:14:20;;;;;;;30.73;13.25;;;;;;;;;;2105841;28;20163;-43
2022/02/05 03:15:21;;;;;;;31.50;15.25;;;;;;;;;;2107631;28;20126;-44
2022/02/05 03:16:24;;;;;;;31.45;14.68;;;;;;;;;;2106532;28;20437;-43
2022/02/05 03:17:25;;;;;;;27.40;13.40;;;;;;;;;;2105700;28;20071;-44
2022/02/05 03:18:30;;;;;;;33.95;14.05;;;;;;;;;;2104673;28;20400;-44
2022/02/05 03:19:32;;;;;;;28.77;15.05;;;;;;;;;;2105554;28;20125;-43
2022/02/05 03:20:33;;;;;;;34.08;16.50;;;;;;;;;;2105663;28;20083;-44
2022/02/05 03:21:34;;;;;;;32.33;15.18;;;;;;;;;;2109422;28;20511;-44
2022/02/05 03:22:35;;;;;;;27.23;13.38;;;;;;;;;;2105581;28;20124;-44
2022/02/05 03:23:36;;;;;;;31.45;15.13;;;;;;;;;;2106238;28;20560;-44
2022/02/05 03:24:38;;;;;;;30.80;16.05;;;;;;;;;;2110763;28;20050;-43
2022/02/05 03:25:39;;;;;;;38.22;16.33;;;;;;;;;;2113974;28;20047;-44
2022/02/05 03:26:40;;;;;;;33.03;14.07;;;;;;;;;;2114739;28;20051;-43
2022/02/05 03:27:41;;;;;;;29.20;14.43;;;;;;;;;;2106368;28;20121;-44
2022/02/05 03:28:42;;;;;;;32.40;14.90;;;;;;;;;;2105619;28;20138;-43
2022/02/05 03:29:47;;;;;;;32.67;16.60;;;;;;;;;;2108459;28;20555;-43
2022/02/05 03:30:48;;;;;;;28.60;14.30;;;;;;;;;;2105305;28;20079;-43
2022/02/05 03:31:49;;;;;;;31.30;14.43;;;;;;;;;;2105748;28;20047;-44
2022/02/05 03:32:50;;;;;;;23.17;11.77;;;;;;;;;;2105606;28;20333;-43
2022/02/05 03:33:51;;;;;;;30.73;14.57;;;;;;;;;;2105731;28;20360;-50
2022/02/05 03:34:52;;;;;;;31.67;14.95;;;;;;;;;;2105671;28;20180;-48
2022/02/05 03:35:53;;;;;;;31.13;15.98;;;;;;;;;;2108580;28;20055;-52
2022/02/05 03:36:55;;;;;;;33.38;15.48;;;;;;;;;;2114004;28;20074;-52
2022/02/05 03:37:56;;;;;;;;;;;;;;;;;;2114472;28;20196;-50
2022/02/05 03:38:57;;;;;;;34.88;14.10;;;;;;;;;;2110755;28;19966;-49
2022/02/05 03:39:59;;;;;;;36.53;14.98;;;;;;;;;;2114248;28;20876;-44
2022/02/05 03:41:00;;;;;;;31.58;14.75;;;;;;;;;;2112232;28;20130;-44
2022/02/05 03:42:01;;;;;;;31.50;14.77;;;;;;;;;;2112677;28;20397;-45
2022/02/05 03:43:02;;;;;;;37.47;15.48;;;;;;;;;;2113911;28;20078;-44
2022/02/05 03:44:03;;;;;;;29.90;14.73;;;;;;;;;;2112453;28;20500;-44
2022/02/05 03:45:05;;;;;;;33.08;14.93;;;;;;;;;;2105614;28;20409;-43
2022/02/05 03:46:06;;;;;;;35.08;15.38;;;;;;;;;;2105602;28;20084;-43
2022/02/05 03:47:07;;;;;;;34.40;14.80;;;;;;;;;;2110012;28;20048;-43
2022/02/05 03:48:08;;;;;;;33.88;16.23;;;;;;;;;;2113874;28;20483;-44
2022/02/05 03:49:12;;;;;;;33.43;15.13;;;;;;;;;;2114266;28;20062;-44
2022/02/05 03:50:13;;;;;;;33.72;16.63;;;;;;;;;;2109938;28;20649;-43
2022/02/05 03:51:14;;;;;;;33.05;14.73;;;;;;;;;;2105412;28;20087;-43
2022/02/05 03:52:15;;;;;;;37.08;16.15;;;;;;;;;;2107308;28;20514;-43
2022/02/05 03:53:17;;;;;;;32.80;16.08;;;;;;;;;;2112093;28;20135;-43
2022/02/05 03:54:20;;;;;;;33.97;15.70;;;;;;;;;;2113997;28;20039;-44
2022/02/05 03:55:22;;;;;;;35.30;15.85;;;;;;;;;;2112480;28;20052;-43
2022/02/05 03:56:23;;;;;;;36.08;16.92;;;;;;;;;;2113439;28;20081;-43
2022/02/05 03:57:24;;;;;;;33.88;15.63;;;;;;;;;;2114748;28;20048;-44
2022/02/05 03:58:25;;;;;;;35.25;16.00;;;;;;;;;;2110680;28;20506;-44
2022/02/05 03:59:26;;;;;;;44.20;18.13;;;;;;;;;;2106877;28;20069;-44
2022/02/05 04:00:27;;;;;;;32.45;15.93;;;;;;;;;;2107002;28;20074;-44
2022/02/05 04:01:28;;;;;;;41.75;16.08;;;;;;;;;;2111456;28;20096;-50
2022/02/05 04:02:29;;;;;;;35.15;16.13;;;;;;;;;;2115292;28;20083;-49
2022/02/05 04:03:30;;;;;;;39.83;15.90;;;;;;;;;;2114916;28;20047;-51
2022/02/05 04:04:32;;;;;;;36.60;16.80;;;;;;;;;;2107643;28;20039;-50
2022/02/05 04:05:33;;;;;;;36.73;16.53;;;;;;;;;;2106873;28;20044;-49
2022/02/05 04:06:34;;;;;;;38.90;16.83;;;;;;;;;;2110427;28;20404;-49
2022/02/05 04:07:40;;;;;;;33.65;16.33;;;;;;;;;;2114116;28;20101;-49
2022/02/05 04:08:41;;;;;;;31.58;16.63;;;;;;;;;;2115275;28;20604;-51
2022/02/05 04:09:42;;;;;;;36.78;16.17;;;;;;;;;;2109428;28;20101;-50
2022/02/05 04:10:47;;;;;;;40.33;17.05;;;;;;;;;;2115269;28;20130;-50
2022/02/05 04:11:59;;;;;;;34.78;16.00;;;;;;;;;;2115293;28;20128;-51
2022/02/05 04:15:58;;;;;;;32.30;14.77;;;;;;;;;;2108166;28;20075;-52
2022/02/05 04:17:00;;;;;;;34.22;15.75;;;;;;;;;;2106771;28;20501;-53
2022/02/05 04:18:00;;;;;;;32.92;15.30;;;;;;;;;;2108031;28;20178;-49
2022/02/05 04:19:02;;;;;;;35.33;14.75;;;;;;;;;;2114604;28;20040;-50
2022/02/05 04:20:03;;;;;;;32.45;15.23;;;;;;;;;;2115315;28;20058;-50
2022/02/05 04:21:05;;;;;;;33.20;15.55;;;;;;;;;;2111905;28;20071;-52
2022/02/05 04:22:07;;;;;;;34.83;15.35;;;;;;;;;;2115217;28;20079;-50
2022/02/05 04:23:08;;;;;;;31.48;13.55;;;;;;;;;;2115295;28;20074;-49
2022/02/05 04:24:10;;;;;;;33.83;15.70;;;;;;;;;;2111703;28;20124;-50
2022/02/05 04:25:11;;;;;;;30.38;15.07;;;;;;;;;;2115151;28;20531;-49
2022/02/05 04:26:13;;;;;;;29.85;14.75;;;;;;;;;;2114361;28;20051;-53
2022/02/05 04:27:14;;;;;;;27.80;13.30;;;;;;;;;;2113107;28;20105;-43
2022/02/05 04:28:15;;;;;;;26.00;13.63;;;;;;;;;;2115288;28;20075;-44
2022/02/05 04:29:16;;;;;;;31.27;13.05;;;;;;;;;;2113258;28;20071;-43
2022/02/05 04:30:17;;;;;;;28.33;13.07;;;;;;;;;;2107761;28;20126;-44
2022/02/05 04:31:18;;;;;;;30.05;13.52;;;;;;;;;;2106666;28;20052;-43
2022/02/05 04:32:19;;;;;;;28.02;14.07;;;;;;;;;;2109887;28;20505;-43
2022/02/05 04:33:20;;;;;;;31.17;14.20;;;;;;;;;;2115163;28;20134;-45
2022/02/05 04:34:21;;;;;;;25.67;13.30;;;;;;;;;;2115105;28;20047;-43
2022/02/05 04:35:22;;;;;;;34.85;15.13;;;;;;;;;;2111991;28;20048;-44
2022/02/05 04:36:23;;;;;;;28.83;13.77;;;;;;;;;;2115019;28;20420;-43
2022/02/05 04:37:27;;;;;;;27.95;14.93;;;;;;;;;;2115439;28;20131;-43
2022/02/05 04:38:29;;;;;;;25.27;13.50;;;;;;;;;;2111980;28;20054;-44
2022/02/05 04:39:31;;;;;;;29.85;15.00;;;;;;;;;;2114923;28;20552;-43
2022/02/05 04:40:37;;;;;;;28.58;13.00;;;;;;;;;;2111716;28;20127;-44
2022/02/05 04:41:47;;;;;;;27.95;13.43;;;;;;;;;;2114143;28;20050;-43
2022/02/05 04:42:57;;;;;;;24.92;14.07;;;;;;;;;;2115052;28;20559;-44
2022/02/05 04:44:11;;;;;;;28.95;13.68;;;;;;;;;;2111141;28;20137;-43
2022/02/05 04:45:37;;;;;;;27.60;13.18;;;;;;;;;;2114836;28;20082;-43
2022/02/05 04:47:12;;;;;;;28.92;12.90;;;;;;;;;;2109211;28;20143;-44
2022/02/05 04:48:46;;;;;;;28.30;12.80;;;;;;;;;;2114939;28;20394;-43
2022/02/05 04:51:28;;;;;;;32.50;12.23;;;;;;;;;;2114937;28;19938;-43
2022/02/05 04:54:11;;;;;;;28.42;14.48;;;;;;;;;;2098992;28;20127;-43
2022/02/05 04:55:38;;;;;;;31.38;12.93;;;;;;;;;;2109419;28;20078;-43
2022/02/05 04:56:49;;;;;;;32.15;13.02;;;;;;;;;;2106386;28;20134;-44
2022/02/05 04:58:01;;;;;;;27.25;12.25;;;;;;;;;;2109980;28;20143;-44
2022/02/05 05:00:40;;;;;;;29.45;13.25;;;;;;;;;;2113085;28;20040;-44
2022/02/05 05:02:07;;;;;;;29.95;13.65;;;;;;;;;;2106316;28;20446;-44
2022/02/05 05:03:28;;;;;;;28.38;13.63;;;;;;;;;;2107178;28;20130;-43
2022/02/05 05:04:34;;;;;;;23.15;12.30;;;;;;;;;;2106486;28;20146;-43
2022/02/05 05:06:01;;;;;;;28.73;13.23;;;;;;;;;;2106405;28;20489;-43
2022/02/05 05:08:38;;;;;;;27.27;12.30;;;;;;;;;;2114280;28;20075;-43
2022/02/05 05:09:53;;;;;;;31.40;15.60;;;;;;;;;;2112053;28;20118;-44
2022/02/05 05:12:26;;;;;;;25.20;12.63;;;;;;;;;;2080752;28;20136;-43
2022/02/05 05:15:13;;;;;;;30.95;14.48;;;;;;;;;;2106582;28;20071;-44
2022/02/05 05:15:23;;;;;;;28.33;13.68;;;;;;;;;;2110411;28;20051;-44
2022/02/05 05:19:16;;;;;;;29.52;12.75;;;;;;;;;;2114724;28;20047;-44
2022/02/05 05:20:17;;;;;;;36.20;15.48;;;;;;;;;;2112840;28;20408;-43
2022/02/05 05:21:18;;;;;;;35.38;14.25;;;;;;;;;;2113546;28;20138;-44
2022/02/05 05:22:19;;;;;;;34.45;14.30;;;;;;;;;;2114796;28;20062;-44
2022/02/05 05:23:20;;;;;;;36.53;15.32;;;;;;;;;;2112467;28;20181;-44
2022/02/05 05:24:22;;;;;;;34.70;15.63;;;;;;;;;;2114940;28;20047;-44
2022/02/05 05:25:23;;;;;;;32.20;15.32;;;;;;;;;;2114900;28;20143;-44
2022/02/05 05:26:24;;;;;;;31.30;13.60;;;;;;;;;;2109274;28;20138;-43
2022/02/05 05:27:26;;;;;;;62.87;24.03;;;;;;;;;;2115109;28;20158;-51
2022/02/05 05:28:27;;;;;;;68.35;25.63;;;;;;;;;;2112256;28;20131;-52
2022/02/05 05:29:28;;;;;;;34.35;16.55;;;;;;;;;;2111800;28;20131;-52
2022/02/05 05:30:29;;;;;;;39.13;18.80;;;;;;;;;;2114587;28;20519;-50
2022/02/05 05:31:30;;;;;;;34.03;14.60;;;;;;;;;;2111186;28;20485;-50
2022/02/05 05:32:31;;;;;;;32.97;14.73;;;;;;;;;;2113467;28;20086;-52
2022/02/05 05:33:32;;;;;;;35.75;16.55;;;;;;;;;;2114751;28;20071;-51
2022/02/05 05:34:34;;;;;;;36.13;17.03;;;;;;;;;;2110851;28;20052;-44
2022/02/05 05:35:35;;;;;;;32.95;15.57;;;;;;;;;;2114416;28;20347;-43
2022/02/05 05:36:36;;;;;;;38.75;16.75;;;;;;;;;;2114770;28;20151;-43
2022/02/05 05:37:37;;;;;;;30.75;16.17;;;;;;;;;;2108606;28;20148;-45
2022/02/05 05:38:38;;;;;;;31.65;15.35;;;;;;;;;;2106388;28;20450;-50
2022/02/05 05:39:42;;;;;;;35.60;16.33;;;;;;;;;;2106555;28;20523;-50
2022/02/05 05:40:44;;;;;;;36.00;17.80;;;;;;;;;;2110855;28;20540;-49
2022/02/05 05:41:45;;;;;;;37.60;18.50;;;;;;;;;;2114554;28;20086;-49
2022/02/05 05:42:52;;;;;;;38.15;19.05;;;;;;;;;;2114549;28;20050;-53
2022/02/05 05:44:05;;;;;;;34.22;15.60;;;;;;;;;;2112852;28;20075;-50
2022/02/05 05:46:32;;;;;;;35.38;16.75;;;;;;;;;;2106768;28;20502;-50
2022/02/05 05:47:36;;;;;;;33.22;15.68;;;;;;;;;;2106309;28;20150;-50
2022/02/05 05:48:54;;;;;;;29.75;14.02;;;;;;;;;;2108949;28;20078;-50
2022/02/05 05:50:02;;;;;;;29.73;13.68;;;;;;;;;;2114599;28;20047;-51
2022/02/05 05:51:04;;;;;;;33.67;16.35;;;;;;;;;;2112326;28;20096;-49
2022/02/05 05:52:05;;;;;;;37.58;15.15;;;;;;;;;;2111892;28;20562;-51
2022/02/05 05:53:07;;;;;;;33.92;15.40;;;;;;;;;;2114506;28;20071;-52
2022/02/05 05:54:07;;;;;;;45.78;18.95;;;;;;;;;;2110399;28;20096;-50
2022/02/05 05:55:09;;;;;;;52.17;22.77;;;;;;;;;;2112975;28;20455;-50
2022/02/05 05:56:10;;;;;;;49.72;22.13;;;;;;;;;;2114477;28;20075;-52
2022/02/05 05:57:11;;;;;;;38.47;18.70;;;;;;;;;;2109886;28;20092;-53
2022/02/05 05:58:13;;;;;;;37.42;17.75;;;;;;;;;;2106489;28;20505;-51
2022/02/05 05:59:14;;;;;;;;;;;;;;;;;;2106481;28;20135;-52
2022/02/05 06:00:16;;;;;;;46.92;17.33;;;;;;;;;;2110177;28;20340;-51
2022/02/05 06:01:17;;;;;;;67.90;25.13;;;;;;;;;;2110287;28;20173;-52
2022/02/05 06:02:18;;;;;;;62.25;24.90;;;;;;;;;;2106756;28;20136;-53
2022/02/05 06:03:19;;;;;;;27.20;13.23;;;;;;;;;;2112125;28;20157;-50
2022/02/05 06:04:20;;;;;;;28.83;14.77;;;;;;;;;;2114498;28;20047;-50
2022/02/05 06:05:21;;;;;;;29.75;13.60;;;;;;;;;;2115042;28;20052;-51
2022/02/05 06:06:23;;;;;;;32.03;15.90;;;;;;;;;;2105874;28;20093;-51
2022/02/05 06:07:23;;;;;;;36.95;18.15;;;;;;;;;;2106354;28;20083;-44
2022/02/05 06:08:25;;;;;;;48.88;21.33;;;;;;;;;;2109821;28;20035;-50
2022/02/05 06:09:25;;;;;;;48.55;23.35;;;;;;;;;;2114438;28;20067;-50
2022/02/05 06:10:27;;;;;;;34.53;17.83;;;;;;;;;;2114475;28;20053;-51
2022/02/05 06:11:29;;;;;;;29.63;14.35;;;;;;;;;;2106270;28;20119;-53
2022/02/05 06:12:29;;;;;;;30.77;13.52;;;;;;;;;;2106133;28;20072;-50
2022/02/05 06:13:34;;;;;;;32.23;15.43;;;;;;;;;;2106789;28;20052;-51
2022/02/05 06:14:35;;;;;;;30.02;14.65;;;;;;;;;;2111675;28;20444;-50
2022/02/05 06:15:37;;;;;;;26.60;13.70;;;;;;;;;;2114315;28;20057;-51
2022/02/05 06:16:38;;;;;;;28.73;14.52;;;;;;;;;;2111838;28;20090;-52
2022/02/05 06:17:39;;;;;;;30.90;17.52;;;;;;;;;;2106780;28;20048;-49
2022/02/05 06:18:40;;;;;;;27.20;14.63;;;;;;;;;;2105946;28;20186;-52
2022/02/05 06:19:42;;;;;;;28.27;13.98;;;;;;;;;;2106035;28;20378;-50
2022/02/05 06:20:43;;;;;;;26.65;13.90;;;;;;;;;;2114046;28;20143;-49
2022/02/05 06:21:44;;;;;;;28.37;13.13;;;;;;;;;;2114481;28;20078;-53
2022/02/05 06:22:45;;;;;;;29.23;15.25;;;;;;;;;;2111263;28;20131;-49
2022/02/05 06:23:47;;;;;;;25.70;13.27;;;;;;;;;;2114495;28;20073;-50
2022/02/05 06:24:47;;;;;;;27.45;12.52;;;;;;;;;;2114823;28;20477;-52
2022/02/05 06:25:49;;;;;;;27.08;13.55;;;;;;;;;;2106798;28;20044;-52
2022/02/05 06:26:49;;;;;;;27.30;14.43;;;;;;;;;;2105866;28;20127;-49
2022/02/05 06:27:51;;;;;;;26.23;14.85;;;;;;;;;;2108076;28;20044;-49
2022/02/05 06:28:57;;;;;;;25.67;12.73;;;;;;;;;;2105664;28;20058;-50
2022/02/05 06:29:58;;;;;;;28.00;13.57;;;;;;;;;;2105905;28;20461;-53
2022/02/05 06:30:59;;;;;;;28.75;13.45;;;;;;;;;;2109773;28;20067;-53
2022/02/05 06:32:01;;;;;;;25.55;13.35;;;;;;;;;;2110446;28;20071;-52
2022/02/05 06:33:02;;;;;;;28.40;13.13;;;;;;;;;;2114209;28;20054;-51
2022/02/05 06:34:03;;;;;;;26.45;13.95;;;;;;;;;;2112413;28;20036;-49
2022/02/05 06:35:05;;;;;;;25.15;12.68;;;;;;;;;;2114595;28;20065;-52
2022/02/05 06:36:06;;;;;;;25.95;11.88;;;;;;;;;;2114998;28;20079;-49
2022/02/05 06:37:07;;;;;;;27.20;14.70;;;;;;;;;;2110492;28;20122;-52
2022/02/05 06:38:09;;;;;;;28.45;14.05;;;;;;;;;;2114173;28;20039;-49
2022/02/05 06:39:10;;;;;;;26.55;14.20;;;;;;;;;;2113112;28;20493;-50
2022/02/05 06:40:11;;;;;;;27.55;13.30;;;;;;;;;;2112343;28;20088;-52
2022/02/05 06:41:12;;;;;;;25.08;14.38;;;;;;;;;;2114377;28;20122;-53
2022/02/05 06:42:13;;;;;;;25.95;14.10;;;;;;;;;;2112129;28;20075;-49
2022/02/05 06:43:14;;;;;;;29.70;14.63;;;;;;;;;;2113456;28;20124;-52
2022/02/05 06:44:16;;;;;;;25.13;13.85;;;;;;;;;;2114435;28;20100;-52
2022/02/05 06:45:19;;;;;;;25.60;11.48;;;;;;;;;;2111163;28;20044;-51
2022/02/05 06:46:20;;;;;;;26.55;14.15;;;;;;;;;;2114137;28;20417;-51
2022/02/05 06:47:21;;;;;;;26.92;13.68;;;;;;;;;;2113309;28;20079;-51
2022/02/05 06:48:22;;;;;;;23.63;13.40;;;;;;;;;;2109367;28;20039;-50
2022/02/05 06:49:26;;;;;;;25.27;12.65;;;;;;;;;;2114174;28;20483;-51
2022/02/05 06:50:27;;;;;;;29.02;13.35;;;;;;;;;;2113404;28;20126;-49
2022/02/05 06:51:28;;;;;;;24.55;12.35;;;;;;;;;;2112024;28;20047;-52
2022/02/05 06:52:29;;;;;;;25.58;12.98;;;;;;;;;;2114198;28;20051;-50
2022/02/05 06:53:30;;;;;;;28.73;13.75;;;;;;;;;;2111518;28;20119;-53
2022/02/05 06:54:31;;;;;;;25.10;12.77;;;;;;;;;;2106823;28;20105;-52
2022/02/05 06:55:32;;;;;;;24.20;12.23;;;;;;;;;;2105782;28;20075;-52
2022/02/05 06:56:33;;;;;;;26.73;14.82;;;;;;;;;;2106399;28;20141;-50
2022/02/05 06:57:35;;;;;;;28.48;14.45;;;;;;;;;;2114045;28;20075;-50
2022/02/05 06:58:36;;;;;;;27.42;14.57;;;;;;;;;;2114022;28;20055;-53
2022/02/05 06:59:37;;;;;;;25.95;14.07;;;;;;;;;;2106323;28;20451;-53
2022/02/05 07:00:38;;;;;;;25.65;13.27;;;;;;;;;;2105600;28;20479;-51
2022/02/05 07:01:40;;;;;;;28.77;13.50;;;;;;;;;;2107734;28;20088;-50
2022/02/05 07:02:43;;;;;;;28.58;11.60;;;;;;;;;;2112702;28;20812;-51
2022/02/05 07:03:45;;;;;;;28.00;14.95;;;;;;;;;;2114221;28;20162;-53
2022/02/05 07:04:47;;;;;;;30.27;14.38;;;;;;;;;;2111924;28;20131;-51
2022/02/05 07:05:48;;;;;;;28.05;13.70;;;;;;;;;;2105641;28;20475;-52
2022/02/05 07:06:52;;;;;;;28.08;13.88;;;;;;;;;;2105942;28;20076;-46
2022/02/05 07:07:53;;;;;;;23.17;12.65;;;;;;;;;;2108954;28;20067;-46
2022/02/05 07:08:55;;;;;;;30.10;16.17;;;;;;;;;;2114180;28;20119;-44
2022/02/05 07:09:56;;;;;;;25.23;13.20;;;;;;;;;;2114559;28;20480;-45
2022/02/05 07:10:58;;;;;;;25.98;13.43;;;;;;;;;;2107108;28;20071;-44
2022/02/05 07:12:00;;;;;;;25.80;11.98;;;;;;;;;;2105530;28;20135;-44
2022/02/05 07:13:11;;;;;;;30.73;14.00;;;;;;;;;;2108080;28;20070;-45
2022/02/05 07:14:15;;;;;;;24.48;12.60;;;;;;;;;;2105601;28;20083;-45
2022/02/05 07:15:21;;;;;;;30.77;15.18;;;;;;;;;;2105805;28;20101;-45
2022/02/05 07:16:27;;;;;;;25.40;14.02;;;;;;;;;;2105095;28;20048;-44
2022/02/05 07:17:37;;;;;;;27.20;14.13;;;;;;;;;;2105697;28;20075;-46
2022/02/05 07:18:47;;;;;;;27.95;12.88;;;;;;;;;;2105756;28;20397;-45
2022/02/05 07:20:00;;;;;;;30.23;14.02;;;;;;;;;;2114206;28;20043;-44
2022/02/05 07:21:06;;;;;;;24.23;12.15;;;;;;;;;;2114423;28;20575;-44
2022/02/05 07:22:07;;;;;;;26.63;13.43;;;;;;;;;;2106644;28;20059;-44
2022/02/05 07:24:53;;;;;;;27.33;13.23;;;;;;;;;;2111660;28;20040;-47
2022/02/05 07:29:53;;;;;;;31.08;13.32;;;;;;;;;;2108951;28;20071;-46
2022/02/05 07:30:57;;;;;;;28.00;14.20;;;;;;;;;;2113576;28;20043;-45
2022/02/05 07:31:59;;;;;;;24.15;13.00;;;;;;;;;;2114126;28;20157;-45
2022/02/05 07:33:00;;;;;;;33.28;16.17;;;;;;;;;;2111090;28;20204;-44
2022/02/05 07:34:02;;;;;;;27.27;13.50;;;;;;;;;;2115476;28;20044;-45
2022/02/05 07:35:04;;;;;;;28.92;14.55;;;;;;;;;;2116262;28;20184;-45
2022/02/05 07:36:05;;;;;;;30.75;14.80;;;;;;;;;;2108859;28;20501;-44